This is the latest recevied weather packets stored in our database for station/object S57ZT-10. If no packets are shown the sender has not sent any weather packets the latest 10 day(s).
| Time | Temp. | Humidity | Pressure | Rain* | Wind** | Luminosity | Snow |
|---|---|---|---|---|---|---|---|
| 1777633322 | 22.78° C | 25% | 1029.2 hPa | - | - | - | - |
| 1777631501 | 23.89° C | 23% | 1029.3 hPa | - | - | - | - |
| 1777626127 | 22.78° C | 24% | 1029.9 hPa | - | - | - | - |
| 1777625224 | 22.22° C | 25% | 1030 hPa | - | - | - | - |
| 1777621621 | 17.78° C | 28% | 1030.2 hPa | - | - | - | - |
| 1777620741 | 16.67° C | 29% | 1030.3 hPa | - | - | - | - |
| 1777620700 | 16.67° C | 29% | 1030.3 hPa | - | - | - | - |
| 1777619677 | 15° C | 32% | 1030.4 hPa | - | - | - | - |
| 1777618940 | 15° C | 32% | 1030.4 hPa | - | - | - | - |
| 1777618020 | 13.89° C | 35% | 1030.4 hPa | - | - | - | - |
| 1777616195 | 11.67° C | 40% | 1030.3 hPa | - | - | - | - |
| 1777613556 | 9.44° C | 43% | 1030.2 hPa | - | - | - | - |
| 1777612602 | 8.89° C | 43% | 1030.3 hPa | - | - | - | - |
| 1777611724 | 8.33° C | 43% | 1030.3 hPa | - | - | - | - |
| 1777610800 | 7.78° C | 43% | 1030.2 hPa | - | - | - | - |
| 1777609927 | 7.78° C | 43% | 1030.2 hPa | - | - | - | - |
| 1777608999 | 7.78° C | 43% | 1030.2 hPa | - | - | - | - |
| 1777608121 | 7.78° C | 43% | 1030.2 hPa | - | - | - | - |
| 1777607211 | 7.78° C | 42% | 1030.1 hPa | - | - | - | - |
| 1777606301 | 7.78° C | 42% | 1030.1 hPa | - | - | - | - |
| 1777605420 | 8.33° C | 41% | 1030 hPa | - | - | - | - |
| 1777604581 | 8.33° C | 40% | 1030.1 hPa | - | - | - | - |
| 1777604403 | 8.33° C | 39% | 1030 hPa | - | - | - | - |
| 1777604324 | 8.33° C | 39% | 1030 hPa | - | - | - | - |
| 1777604190 | 8.33° C | 39% | 1030 hPa | - | - | - | - |
* Rain since midnight (hover to see other rain measurements)
** Current wind speed in m/s (hover to see current wind gust speed)